Time,TemperatureF,DewpointF,PressureIn,WindDirection,WindDirectionDegrees,WindSpeedMPH,WindSpeedGustMPH,Humidity,HourlyPrecipIn,Conditions,Clouds,dailyrainin,SoftwareType,DateUTC
2013-05-10 00:02:00,66.0,60.0,29.89,North,0,0.0,0.0,81,0.00,,,0.00,,2013-05-10 05:02:00,
2013-05-10 00:12:00,66.0,60.0,29.89,North,0,0.0,0.0,82,0.00,,,0.00,,2013-05-10 05:12:00,
2013-05-10 00:22:00,66.0,60.0,29.89,North,0,0.0,0.0,82,0.00,,,0.00,,2013-05-10 05:22:00,
2013-05-10 00:32:00,65.0,60.0,29.89,North,0,0.0,0.0,84,0.00,,,0.00,,2013-05-10 05:32:00,
2013-05-10 00:42:00,65.0,60.0,29.88,North,0,0.0,0.0,85,0.00,,,0.00,,2013-05-10 05:42:00,
2013-05-10 00:52:00,65.0,60.0,29.88,North,0,0.0,0.0,85,0.00,,,0.00,,2013-05-10 05:52:00,
2013-05-10 01:01:00,65.0,60.0,29.88,North,0,0.0,0.0,85,0.00,,,0.00,,2013-05-10 06:01:00,
2013-05-10 01:12:00,65.0,60.0,29.88,SSW,193,0.0,1.0,84,0.00,,,0.00,,2013-05-10 06:12:00,
2013-05-10 01:21:00,65.0,60.0,29.88,SSW,193,0.0,1.0,84,0.00,,,0.00,,2013-05-10 06:21:00,
2013-05-10 01:32:00,66.0,61.0,29.88,North,0,0.0,0.0,83,0.00,,,0.00,,2013-05-10 06:32:00,
2013-05-10 01:42:00,66.0,61.0,29.88,North,0,0.0,0.0,83,0.00,,,0.00,,2013-05-10 06:42:00,
2013-05-10 01:52:00,66.0,60.0,29.86,North,0,0.0,0.0,82,0.00,,,0.00,,2013-05-10 06:52:00,
2013-05-10 02:01:00,66.0,60.0,29.86,North,0,0.0,0.0,81,0.00,,,0.00,,2013-05-10 07:01:00,
2013-05-10 02:12:00,66.0,60.0,29.86,North,0,0.0,0.0,81,0.00,,,0.00,,2013-05-10 07:12:00,
2013-05-10 02:22:00,66.0,60.0,29.85,North,0,0.0,0.0,82,0.00,,,0.00,,2013-05-10 07:22:00,
2013-05-10 02:31:00,66.0,61.0,29.85,South,178,0.0,2.0,83,0.00,,,0.00,,2013-05-10 07:31:00,
2013-05-10 02:42:00,66.0,61.0,29.83,North,0,0.0,0.0,83,0.00,,,0.00,,2013-05-10 07:42:00,
2013-05-10 02:52:00,66.0,61.0,29.83,North,0,0.0,0.0,83,0.00,,,0.00,,2013-05-10 07:52:00,
2013-05-10 03:02:00,66.0,61.0,29.83,North,0,0.0,0.0,83,0.00,,,0.00,,2013-05-10 08:02:00,
2013-05-10 03:12:00,66.0,61.0,29.83,North,0,0.0,0.0,83,0.00,,,0.00,,2013-05-10 08:12:00,
2013-05-10 03:22:00,66.0,60.0,29.83,North,0,0.0,0.0,82,0.00,,,0.00,,2013-05-10 08:22:00,
2013-05-10 03:32:00,66.0,60.0,29.83,North,0,0.0,0.0,82,0.00,,,0.00,,2013-05-10 08:32:00,
2013-05-10 03:42:00,66.0,60.0,29.83,South,178,0.0,1.0,81,0.00,,,0.00,,2013-05-10 08:42:00,
2013-05-10 03:52:00,66.0,60.0,29.83,South,178,0.0,1.0,81,0.00,,,0.00,,2013-05-10 08:52:00,
2013-05-10 04:01:00,66.0,60.0,29.82,North,0,0.0,0.0,82,0.00,,,0.00,,2013-05-10 09:01:00,
2013-05-10 04:11:00,66.0,60.0,29.82,North,0,0.0,0.0,82,0.00,,,0.00,,2013-05-10 09:11:00,
2013-05-10 04:21:00,66.0,60.0,29.82,North,0,0.0,0.0,82,0.00,,,0.00,,2013-05-10 09:21:00,
2013-05-10 04:32:00,66.0,61.0,29.82,North,0,0.0,0.0,83,0.00,,,0.00,,2013-05-10 09:32:00,
2013-05-10 04:42:00,66.0,61.0,29.82,North,0,0.0,0.0,83,0.00,,,0.00,,2013-05-10 09:42:00,
2013-05-10 04:52:00,66.0,60.0,29.82,WSW,255,2.0,9.0,81,0.00,,,0.00,,2013-05-10 09:52:00,
2013-05-10 05:03:00,67.0,61.0,29.82,West,267,3.0,12.0,81,0.00,,,0.00,,2013-05-10 10:03:00,
2013-05-10 05:12:00,67.0,61.0,29.82,West,267,3.0,12.0,81,0.00,,,0.00,,2013-05-10 10:12:00,
2013-05-10 05:23:00,64.0,61.0,29.84,West,262,6.0,22.0,90,0.05,,,0.05,,2013-05-10 10:23:00,
2013-05-10 05:32:00,64.0,62.0,29.84,West,279,7.0,16.0,93,0.11,,,0.11,,2013-05-10 10:32:00,
2013-05-10 05:42:00,64.0,62.0,29.84,West,279,7.0,16.0,93,0.11,,,0.11,,2013-05-10 10:42:00,
2013-05-10 05:52:00,63.0,62.0,29.83,West,275,4.0,13.0,96,0.15,,,0.15,,2013-05-10 10:52:00,
2013-05-10 06:02:00,63.0,62.0,29.83,West,261,1.0,8.0,96,0.17,,,0.17,,2013-05-10 11:02:00,
2013-05-10 06:12:00,63.0,62.0,29.83,SW,233,0.0,1.0,96,0.11,,,0.18,,2013-05-10 11:12:00,
2013-05-10 06:21:00,63.0,62.0,29.83,SW,233,0.0,1.0,96,0.11,,,0.18,,2013-05-10 11:21:00,
2013-05-10 06:32:00,63.0,62.0,29.83,North,0,0.0,0.0,96,0.06,,,0.18,,2013-05-10 11:32:00,
2013-05-10 06:42:00,63.0,62.0,29.83,North,0,0.0,0.0,97,0.02,,,0.18,,2013-05-10 11:42:00,
2013-05-10 06:52:00,63.0,62.0,29.83,North,0,0.0,0.0,97,0.02,,,0.18,,2013-05-10 11:52:00,
2013-05-10 07:01:00,62.0,61.0,29.83,North,0,0.0,0.0,97,0.01,,,0.19,,2013-05-10 12:01:00,
2013-05-10 07:11:00,62.0,61.0,29.83,North,0,0.0,0.0,97,0.01,,,0.19,,2013-05-10 12:11:00,
2013-05-10 07:21:00,62.0,61.0,29.84,North,0,0.0,0.0,97,0.01,,,0.19,,2013-05-10 12:21:00,
2013-05-10 07:32:00,62.0,62.0,29.85,SE,142,0.0,1.0,100,0.01,,,0.19,,2013-05-10 12:32:00,
2013-05-10 07:42:00,62.0,62.0,29.85,SE,142,0.0,1.0,100,0.01,,,0.19,,2013-05-10 12:42:00,
2013-05-10 07:52:00,63.0,63.0,29.85,SE,142,0.0,1.0,100,0.02,,,0.20,,2013-05-10 12:52:00,
2013-05-10 08:01:00,63.0,63.0,29.85,SSW,192,0.0,5.0,100,0.03,,,0.22,,2013-05-10 13:01:00,
2013-05-10 08:11:00,63.0,63.0,29.85,SSW,192,0.0,5.0,100,0.03,,,0.22,,2013-05-10 13:11:00,
2013-05-10 08:21:00,63.0,63.0,29.85,SSW,198,0.0,2.0,100,0.05,,,0.25,,2013-05-10 13:21:00,
2013-05-10 08:32:00,63.0,63.0,29.85,SE,135,0.0,2.0,99,0.09,,,0.28,,2013-05-10 13:32:00,
2013-05-10 08:41:00,63.0,63.0,29.85,North,0,0.0,0.0,99,0.10,,,0.30,,2013-05-10 13:41:00,
2013-05-10 08:52:00,63.0,63.0,29.85,North,0,0.0,0.0,99,0.10,,,0.30,,2013-05-10 13:52:00,
2013-05-10 09:02:00,63.0,63.0,29.85,ESE,115,0.0,1.0,99,0.13,,,0.36,,2013-05-10 14:02:00,
2013-05-10 09:11:00,63.0,63.0,29.85,ESE,115,0.0,1.0,99,0.13,,,0.36,,2013-05-10 14:11:00,
2013-05-10 09:21:00,63.0,63.0,29.85,North,0,0.0,0.0,99,0.14,,,0.40,,2013-05-10 14:21:00,
2013-05-10 09:32:00,63.0,63.0,29.84,ESE,105,0.0,6.0,99,0.17,,,0.45,,2013-05-10 14:32:00,
2013-05-10 09:41:00,63.0,63.0,29.84,ESE,120,0.0,2.0,99,0.20,,,0.52,,2013-05-10 14:41:00,
2013-05-10 09:52:00,63.0,63.0,29.84,ESE,120,0.0,2.0,99,0.20,,,0.52,,2013-05-10 14:52:00,
2013-05-10 10:01:00,63.0,63.0,29.84,North,0,0.0,0.0,99,0.20,,,0.54,,2013-05-10 15:01:00,
2013-05-10 10:20:00,-999.0,-99.9,29.84,North,0,0.0,0.0,99,0.13,,,0.55,,2013-05-10 15:20:00,
2013-05-10 10:32:00,64.0,64.0,29.84,North,0,0.0,0.0,99,0.10,,,0.55,,2013-05-10 15:32:00,
2013-05-10 10:42:00,64.0,64.0,29.84,North,0,0.0,0.0,99,0.02,,,0.55,,2013-05-10 15:42:00,
2013-05-10 10:53:00,64.0,64.0,29.84,North,0,0.0,0.0,99,0.02,,,0.55,,2013-05-10 15:53:00,
2013-05-10 11:02:00,64.0,64.0,29.84,SE,127,0.0,5.0,99,0.01,,,0.55,,2013-05-10 16:02:00,
2013-05-10 11:12:00,64.0,64.0,29.84,SE,127,0.0,1.0,99,0.01,,,0.56,,2013-05-10 16:12:00,
2013-05-10 11:23:00,64.0,64.0,29.84,SE,127,0.0,1.0,99,0.01,,,0.56,,2013-05-10 16:23:00,
2013-05-10 11:32:00,64.0,64.0,29.85,West,274,1.0,10.0,99,0.02,,,0.57,,2013-05-10 16:32:00,
2013-05-10 11:42:00,64.0,64.0,29.85,West,265,1.0,6.0,99,0.02,,,0.57,,2013-05-10 16:42:00,
2013-05-10 11:52:00,64.0,64.0,29.85,West,265,1.0,6.0,99,0.02,,,0.57,,2013-05-10 16:52:00,
2013-05-10 12:02:00,65.0,65.0,29.84,WSW,252,1.0,8.0,99,0.02,,,0.57,,2013-05-10 17:02:00,
2013-05-10 12:12:00,65.0,65.0,29.84,WSW,252,1.0,8.0,99,0.02,,,0.57,,2013-05-10 17:12:00,
2013-05-10 12:22:00,65.0,65.0,29.84,West,268,2.0,7.0,99,0.02,,,0.57,,2013-05-10 17:22:00,
2013-05-10 12:32:00,66.0,66.0,29.83,WSW,251,3.0,12.0,100,0.00,,,0.57,,2013-05-10 17:32:00,
2013-05-10 12:42:00,66.0,65.0,29.83,West,264,2.0,7.0,96,0.00,,,0.57,,2013-05-10 17:42:00,
2013-05-10 12:52:00,66.0,65.0,29.83,West,264,2.0,7.0,96,0.00,,,0.57,,2013-05-10 17:52:00,
2013-05-10 13:10:00,-999.0,-99.9,29.83,West,274,3.0,10.0,92,0.00,,,0.57,,2013-05-10 18:10:00,
2013-05-10 13:22:00,67.0,64.0,29.82,West,265,3.0,8.0,90,0.00,,,0.57,,2013-05-10 18:22:00,
2013-05-10 13:34:00,67.0,64.0,29.82,NNW,327,0.0,5.0,91,0.00,,,0.57,,2013-05-10 18:34:00,
2013-05-10 13:43:00,68.0,63.0,29.82,West,261,1.0,10.0,85,0.00,,,0.57,,2013-05-10 18:43:00,
2013-05-10 13:54:00,68.0,63.0,29.82,West,261,1.0,10.0,85,0.00,,,0.57,,2013-05-10 18:54:00,
2013-05-10 14:02:00,68.0,62.0,29.82,West,264,2.0,7.0,82,0.00,,,0.57,,2013-05-10 19:02:00,
2013-05-10 14:11:00,68.0,62.0,29.82,West,264,2.0,7.0,82,0.00,,,0.57,,2013-05-10 19:11:00,
2013-05-10 14:21:00,70.0,64.0,29.82,West,264,3.0,11.0,81,0.00,,,0.57,,2013-05-10 19:21:00,
2013-05-10 14:32:00,71.0,63.0,29.82,West,263,0.0,8.0,75,0.00,,,0.57,,2013-05-10 19:32:00,
2013-05-10 14:42:00,72.0,62.0,29.81,West,266,2.0,11.0,72,0.00,,,0.57,,2013-05-10 19:42:00,
2013-05-10 14:52:00,72.0,62.0,29.81,West,266,2.0,11.0,72,0.00,,,0.57,,2013-05-10 19:52:00,
2013-05-10 15:01:00,72.0,62.0,29.80,West,270,1.0,7.0,71,0.00,,,0.57,,2013-05-10 20:01:00,
2013-05-10 15:12:00,72.0,62.0,29.80,West,270,1.0,7.0,71,0.00,,,0.57,,2013-05-10 20:12:00,
2013-05-10 15:21:00,72.0,61.0,29.80,WSW,241,3.0,9.0,69,0.00,,,0.57,,2013-05-10 20:21:00,
2013-05-10 15:32:00,72.0,63.0,29.79,West,273,0.0,4.0,74,0.00,,,0.57,,2013-05-10 20:32:00,
2013-05-10 15:41:00,72.0,63.0,29.79,West,273,0.0,4.0,74,0.00,,,0.57,,2013-05-10 20:41:00,
2013-05-10 15:52:00,72.0,63.0,29.79,West,271,1.0,6.0,73,0.00,,,0.57,,2013-05-10 20:52:00,
2013-05-10 16:02:00,72.0,63.0,29.80,WSW,239,2.0,12.0,73,0.00,,,0.57,,2013-05-10 21:02:00,
2013-05-10 16:11:00,72.0,62.0,29.80,WSW,242,1.0,6.0,72,0.00,,,0.57,,2013-05-10 21:11:00,
2013-05-10 16:24:00,72.0,62.0,29.80,WSW,242,1.0,6.0,72,0.00,,,0.57,,2013-05-10 21:24:00,
2013-05-10 16:32:00,71.0,63.0,29.79,SW,236,3.0,9.0,77,0.00,,,0.57,,2013-05-10 21:32:00,
2013-05-10 16:43:00,71.0,64.0,29.79,WSW,241,0.0,7.0,79,0.00,,,0.57,,2013-05-10 21:43:00,
2013-05-10 16:52:00,71.0,64.0,29.79,WSW,241,0.0,7.0,79,0.00,,,0.57,,2013-05-10 21:52:00,
2013-05-10 17:02:00,72.0,64.0,29.79,WSW,254,0.0,6.0,77,0.00,,,0.57,,2013-05-10 22:02:00,
2013-05-10 17:13:00,72.0,64.0,29.79,WSW,254,0.0,6.0,77,0.00,,,0.57,,2013-05-10 22:13:00,
2013-05-10 17:22:00,73.0,64.0,29.79,SW,214,1.0,6.0,74,0.00,,,0.57,,2013-05-10 22:22:00,
2013-05-10 17:32:00,73.0,66.0,29.79,SSW,211,1.0,7.0,78,0.00,,,0.57,,2013-05-10 22:32:00,
2013-05-10 17:42:00,73.0,65.0,29.79,WSW,243,0.0,7.0,75,0.00,,,0.57,,2013-05-10 22:42:00,
2013-05-10 17:52:00,73.0,65.0,29.79,WSW,243,0.0,7.0,75,0.00,,,0.57,,2013-05-10 22:52:00,
2013-05-10 18:02:00,73.0,64.0,29.79,SW,222,1.0,7.0,74,0.00,,,0.57,,2013-05-10 23:02:00,
2013-05-10 18:12:00,73.0,64.0,29.79,SW,222,1.0,7.0,74,0.00,,,0.57,,2013-05-10 23:12:00,
2013-05-10 18:22:00,72.0,64.0,29.78,SW,236,0.0,2.0,77,0.00,,,0.57,,2013-05-10 23:22:00,
2013-05-10 18:32:00,72.0,64.0,29.78,WSW,257,0.0,6.0,77,0.00,,,0.57,,2013-05-10 23:32:00,
2013-05-10 18:41:00,71.0,64.0,29.79,North,0,0.0,0.0,78,0.00,,,0.57,,2013-05-10 23:41:00,
2013-05-10 18:52:00,71.0,64.0,29.79,North,0,0.0,0.0,78,0.00,,,0.57,,2013-05-10 23:52:00,
2013-05-10 19:01:00,71.0,64.0,29.78,North,0,0.0,0.0,79,0.00,,,0.57,,2013-05-11 00:01:00,
2013-05-10 19:11:00,70.0,64.0,29.78,North,0,0.0,0.0,81,0.00,,,0.57,,2013-05-11 00:11:00,
2013-05-10 19:21:00,70.0,64.0,29.78,North,0,0.0,0.0,81,0.00,,,0.57,,2013-05-11 00:21:00,
2013-05-10 19:32:00,70.0,65.0,29.78,North,0,0.0,0.0,84,0.00,,,0.57,,2013-05-11 00:32:00,
2013-05-10 19:42:00,69.0,65.0,29.78,North,0,0.0,0.0,86,0.00,,,0.57,,2013-05-11 00:42:00,
2013-05-10 19:51:00,69.0,65.0,29.78,North,0,0.0,0.0,86,0.00,,,0.57,,2013-05-11 00:51:00,
2013-05-10 20:01:00,68.0,65.0,29.81,North,0,0.0,0.0,89,0.00,,,0.57,,2013-05-11 01:01:00,
2013-05-10 20:11:00,68.0,65.0,29.81,North,0,0.0,0.0,89,0.00,,,0.57,,2013-05-11 01:11:00,
2013-05-10 20:21:00,68.0,65.0,29.81,North,0,0.0,0.0,90,0.00,,,0.57,,2013-05-11 01:21:00,
2013-05-10 20:32:00,67.0,64.0,29.80,North,0,0.0,0.0,91,0.00,,,0.57,,2013-05-11 01:32:00,
2013-05-10 20:42:00,67.0,65.0,29.80,North,0,0.0,0.0,92,0.00,,,0.57,,2013-05-11 01:42:00,
2013-05-10 20:52:00,67.0,65.0,29.80,North,0,0.0,0.0,92,0.00,,,0.57,,2013-05-11 01:52:00,
2013-05-10 21:02:00,66.0,64.0,29.81,North,0,0.0,0.0,93,0.00,,,0.57,,2013-05-11 02:02:00,
2013-05-10 21:11:00,66.0,64.0,29.81,North,0,0.0,0.0,93,0.00,,,0.57,,2013-05-11 02:11:00,
2013-05-10 21:21:00,66.0,64.0,29.82,North,0,0.0,0.0,93,0.00,,,0.57,,2013-05-11 02:21:00,
2013-05-10 21:32:00,66.0,64.0,29.82,North,0,0.0,0.0,93,0.00,,,0.57,,2013-05-11 02:32:00,
2013-05-10 21:42:00,65.0,63.0,29.83,North,0,0.0,0.0,94,0.00,,,0.57,,2013-05-11 02:42:00,
2013-05-10 21:51:00,65.0,63.0,29.83,North,0,0.0,0.0,94,0.00,,,0.57,,2013-05-11 02:51:00,
2013-05-10 22:01:00,65.0,63.0,29.83,NNW,332,0.0,3.0,93,0.00,,,0.57,,2013-05-11 03:01:00,
2013-05-10 22:11:00,65.0,63.0,29.83,NNW,332,0.0,3.0,93,0.00,,,0.57,,2013-05-11 03:11:00,
2013-05-10 22:21:00,65.0,62.0,29.85,North,355,0.0,6.0,89,0.00,,,0.57,,2013-05-11 03:21:00,
2013-05-10 22:32:00,65.0,61.0,29.85,NNE,22,0.0,2.0,88,0.00,,,0.57,,2013-05-11 03:32:00,
2013-05-10 22:42:00,65.0,61.0,29.86,North,356,0.0,6.0,87,0.00,,,0.57,,2013-05-11 03:42:00,
2013-05-10 22:53:00,65.0,61.0,29.86,North,356,0.0,6.0,87,0.00,,,0.57,,2013-05-11 03:53:00,
2013-05-10 23:02:00,65.0,61.0,29.86,North,349,0.0,6.0,87,0.00,,,0.57,,2013-05-11 04:02:00,
2013-05-10 23:12:00,65.0,61.0,29.86,North,349,0.0,6.0,87,0.00,,,0.57,,2013-05-11 04:12:00,
2013-05-10 23:23:00,65.0,61.0,29.87,North,10,0.0,7.0,88,0.00,,,0.57,,2013-05-11 04:23:00,
2013-05-10 23:33:00,65.0,61.0,29.86,North,356,1.0,10.0,86,0.00,,,0.57,,2013-05-11 04:33:00,
2013-05-10 23:43:00,64.0,60.0,29.86,North,355,1.0,12.0,87,0.00,,,0.57,,2013-05-11 04:43:00,
2013-05-10 23:52:00,64.0,60.0,29.86,North,355,1.0,12.0,87,0.00,,,0.57,,2013-05-11 04:52:00,